BDR011 UTDD-VILH
Flight info
| Callsign | BDR011 |
|---|---|
| Flight time | 1h 27m |
| Altitude | 37000 |
| Route | JD1A JD A238 RAMAN/N0448F370 DCT MOTMO DCT GT DCT LEH |
| Aircraft | B738/M-SDE2E3FGHIRWXY/LB1 |
Departure
| Time | 2026-04-25 04:41 |
|---|---|
| Airport | Dushanbe International Airport (UTDD) |
Arrival
| Time | 2026-04-25 06:08 |
|---|---|
| Airport | Leh Kushok Bakula Rimpochee Airport (VILH) |
| Time | Latitude | Longitude | Altitude | Speed | Heading |
|---|---|---|---|---|---|
| 2026-04-25 04:22 | 38.54771 | 68.81064 | 2588 ft | 0 kts | 1° |
| 2026-04-25 04:37 | 38.54773 | 68.81073 | 2582 ft | 2 kts | 92° |
| 2026-04-25 04:37 | 38.54752 | 68.81085 | 2587 ft | 4 kts | 161° |
| 2026-04-25 04:37 | 38.54716 | 68.81084 | 2593 ft | 7 kts | 200° |
| 2026-04-25 04:38 | 38.54685 | 68.81023 | 2589 ft | 10 kts | 264° |
| 2026-04-25 04:38 | 38.54683 | 68.80933 | 2597 ft | 10 kts | 271° |
| 2026-04-25 04:38 | 38.54684 | 68.80840 | 2595 ft | 11 kts | 270° |
| 2026-04-25 04:38 | 38.54684 | 68.80778 | 2599 ft | 10 kts | 270° |
| 2026-04-25 04:39 | 38.54680 | 68.80688 | 2600 ft | 10 kts | 243° |
| 2026-04-25 04:39 | 38.54614 | 68.80667 | 2600 ft | 10 kts | 181° |
| 2026-04-25 04:39 | 38.54546 | 68.80667 | 2601 ft | 10 kts | 178° |
| 2026-04-25 04:39 | 38.54469 | 68.80669 | 2600 ft | 11 kts | 179° |
| 2026-04-25 04:40 | 38.54382 | 68.80676 | 2600 ft | 8 kts | 155° |
| 2026-04-25 04:40 | 38.54370 | 68.80823 | 2599 ft | 39 kts | 90° |
| 2026-04-25 04:40 | 38.54369 | 68.81483 | 2591 ft | 107 kts | 90° |
| 2026-04-25 04:40 | 38.54366 | 68.82686 | 2575 ft | 161 kts | 90° |
| 2026-04-25 04:41 | 38.54356 | 68.84149 | 3155 ft | 160 kts | 90° |
| 2026-04-25 04:41 | 38.54355 | 68.85617 | 3715 ft | 173 kts | 90° |
| 2026-04-25 04:41 | 38.54358 | 68.87145 | 4391 ft | 173 kts | 89° |
| 2026-04-25 04:41 | 38.54375 | 68.88780 | 4811 ft | 193 kts | 89° |
| 2026-04-25 04:42 | 38.54393 | 68.90450 | 5739 ft | 179 kts | 89° |
| 2026-04-25 04:42 | 38.54400 | 68.91975 | 6647 ft | 165 kts | 90° |
| 2026-04-25 04:42 | 38.54397 | 68.93405 | 7368 ft | 159 kts | 90° |
| 2026-04-25 04:42 | 38.54392 | 68.94848 | 7894 ft | 167 kts | 90° |
| 2026-04-25 04:43 | 38.54397 | 68.96346 | 8493 ft | 169 kts | 90° |
| 2026-04-25 04:43 | 38.54403 | 68.97836 | 9179 ft | 167 kts | 90° |
| 2026-04-25 04:43 | 38.54407 | 68.99316 | 9851 ft | 165 kts | 91° |
| 2026-04-25 04:43 | 38.54408 | 69.00762 | 10469 ft | 162 kts | 91° |
| 2026-04-25 04:44 | 38.54394 | 69.02220 | 10961 ft | 166 kts | 91° |
| 2026-04-25 04:44 | 38.54388 | 69.03759 | 11302 ft | 187 kts | 90° |
| 2026-04-25 04:44 | 38.54391 | 69.05529 | 11542 ft | 211 kts | 90° |
| 2026-04-25 04:44 | 38.54394 | 69.07503 | 11730 ft | 233 kts | 90° |
| 2026-04-25 04:45 | 38.54397 | 69.09671 | 11904 ft | 255 kts | 90° |
| 2026-04-25 04:45 | 38.54400 | 69.12022 | 12080 ft | 274 kts | 90° |
| 2026-04-25 04:45 | 38.54402 | 69.14507 | 12439 ft | 286 kts | 90° |
| 2026-04-25 04:45 | 38.54403 | 69.17126 | 12559 ft | 310 kts | 90° |
| 2026-04-25 04:46 | 38.54405 | 69.19998 | 12731 ft | 337 kts | 91° |
| 2026-04-25 04:46 | 38.54405 | 69.23065 | 13183 ft | 352 kts | 90° |
| 2026-04-25 04:46 | 38.54403 | 69.26230 | 13992 ft | 358 kts | 91° |
| 2026-04-25 04:46 | 38.54174 | 69.29394 | 14730 ft | 362 kts | 107° |
| 2026-04-25 04:47 | 38.53028 | 69.32247 | 15445 ft | 365 kts | 129° |
| 2026-04-25 04:47 | 38.51176 | 69.34450 | 16163 ft | 367 kts | 145° |
| 2026-04-25 04:47 | 38.49078 | 69.36350 | 16896 ft | 373 kts | 147° |
| 2026-04-25 04:47 | 38.46917 | 69.38233 | 17614 ft | 379 kts | 148° |
| 2026-04-25 04:48 | 38.44718 | 69.40139 | 18358 ft | 385 kts | 148° |
| 2026-04-25 04:48 | 38.42489 | 69.42081 | 19002 ft | 390 kts | 148° |
| 2026-04-25 04:48 | 38.40239 | 69.44056 | 19682 ft | 394 kts | 148° |
| 2026-04-25 04:48 | 38.37986 | 69.46078 | 20301 ft | 400 kts | 147° |
| 2026-04-25 04:49 | 38.35692 | 69.48116 | 20924 ft | 404 kts | 148° |
| 2026-04-25 04:49 | 38.33368 | 69.50162 | 21554 ft | 407 kts | 148° |
| 2026-04-25 04:49 | 38.31018 | 69.52232 | 22102 ft | 414 kts | 148° |
| 2026-04-25 04:49 | 38.28649 | 69.54334 | 22796 ft | 415 kts | 148° |
| 2026-04-25 04:50 | 38.26273 | 69.56441 | 23469 ft | 418 kts | 148° |
| 2026-04-25 04:50 | 38.23796 | 69.58414 | 23949 ft | 421 kts | 157° |
| 2026-04-25 04:50 | 38.21108 | 69.59901 | 24406 ft | 422 kts | 162° |
| 2026-04-25 04:50 | 38.18368 | 69.61270 | 24901 ft | 425 kts | 163° |
| 2026-04-25 04:51 | 38.15632 | 69.62603 | 25381 ft | 428 kts | 163° |
| 2026-04-25 04:51 | 38.12807 | 69.63990 | 25866 ft | 432 kts | 162° |
| 2026-04-25 04:51 | 38.10036 | 69.65372 | 26341 ft | 435 kts | 162° |
| 2026-04-25 04:51 | 38.07173 | 69.66818 | 26827 ft | 439 kts | 162° |
| 2026-04-25 04:52 | 38.04370 | 69.68246 | 27284 ft | 442 kts | 162° |
| 2026-04-25 04:52 | 38.01507 | 69.69711 | 27735 ft | 445 kts | 162° |
| 2026-04-25 04:52 | 37.98584 | 69.71204 | 28121 ft | 449 kts | 162° |
| 2026-04-25 04:52 | 37.95720 | 69.72673 | 28544 ft | 451 kts | 162° |
| 2026-04-25 04:53 | 37.92798 | 69.74171 | 28973 ft | 454 kts | 162° |
| 2026-04-25 04:53 | 37.89860 | 69.75675 | 29388 ft | 457 kts | 162° |
| 2026-04-25 04:53 | 37.86900 | 69.77187 | 29786 ft | 460 kts | 162° |
| 2026-04-25 04:53 | 37.83920 | 69.78707 | 30178 ft | 463 kts | 162° |
| 2026-04-25 04:54 | 37.80918 | 69.80236 | 30538 ft | 466 kts | 162° |
| 2026-04-25 04:54 | 37.77905 | 69.81770 | 30866 ft | 468 kts | 163° |
| 2026-04-25 04:54 | 37.74879 | 69.83311 | 31202 ft | 470 kts | 163° |
| 2026-04-25 04:54 | 37.71838 | 69.84852 | 31438 ft | 473 kts | 163° |
| 2026-04-25 04:55 | 37.68777 | 69.86406 | 31834 ft | 473 kts | 163° |
| 2026-04-25 04:55 | 37.65739 | 69.87973 | 32378 ft | 471 kts | 161° |
| 2026-04-25 04:55 | 37.62856 | 69.89964 | 32881 ft | 476 kts | 151° |
| 2026-04-25 04:55 | 37.60220 | 69.92514 | 33284 ft | 480 kts | 142° |
| 2026-04-25 04:56 | 37.57883 | 69.95566 | 33624 ft | 488 kts | 134° |
| 2026-04-25 04:56 | 37.55730 | 69.98882 | 33954 ft | 490 kts | 133° |
| 2026-04-25 04:56 | 37.53612 | 70.02230 | 34446 ft | 486 kts | 132° |
| 2026-04-25 04:56 | 37.51518 | 70.05550 | 34793 ft | 485 kts | 133° |
| 2026-04-25 04:57 | 37.49403 | 70.08873 | 34992 ft | 488 kts | 133° |
| 2026-04-25 04:57 | 37.47261 | 70.12208 | 35204 ft | 491 kts | 133° |
| 2026-04-25 04:57 | 37.45105 | 70.15539 | 35524 ft | 491 kts | 134° |
| 2026-04-25 04:57 | 37.42949 | 70.18855 | 35961 ft | 487 kts | 134° |
| 2026-04-25 04:58 | 37.40805 | 70.22142 | 36383 ft | 485 kts | 134° |
| 2026-04-25 04:58 | 37.38666 | 70.25409 | 36751 ft | 484 kts | 134° |
| 2026-04-25 04:58 | 37.36519 | 70.28684 | 36916 ft | 488 kts | 134° |
| 2026-04-25 04:58 | 37.34354 | 70.31984 | 37108 ft | 489 kts | 134° |
| 2026-04-25 04:59 | 37.32190 | 70.35284 | 37221 ft | 492 kts | 134° |
| 2026-04-25 04:59 | 37.27810 | 70.41951 | 37219 ft | 495 kts | 134° |
| 2026-04-25 05:00 | 37.23454 | 70.48580 | 37226 ft | 488 kts | 134° |
| 2026-04-25 05:00 | 37.19162 | 70.55094 | 37242 ft | 488 kts | 135° |
| 2026-04-25 05:01 | 37.14820 | 70.61653 | 37268 ft | 489 kts | 134° |
| 2026-04-25 05:01 | 37.10462 | 70.68238 | 37258 ft | 491 kts | 135° |
| 2026-04-25 05:02 | 37.06103 | 70.74823 | 37221 ft | 491 kts | 134° |
| 2026-04-25 05:02 | 37.01778 | 70.81382 | 37290 ft | 487 kts | 135° |
| 2026-04-25 05:03 | 36.97431 | 70.87884 | 37294 ft | 488 kts | 135° |
| 2026-04-25 05:03 | 36.93055 | 70.94398 | 37315 ft | 492 kts | 135° |
| 2026-04-25 05:04 | 36.88653 | 71.00987 | 37316 ft | 495 kts | 135° |
| 2026-04-25 05:04 | 36.84197 | 71.07597 | 37267 ft | 499 kts | 135° |
| 2026-04-25 05:05 | 36.79812 | 71.14174 | 37322 ft | 490 kts | 135° |
| 2026-04-25 05:05 | 36.75440 | 71.20711 | 37351 ft | 491 kts | 135° |
| 2026-04-25 05:06 | 36.71066 | 71.27200 | 37360 ft | 493 kts | 135° |
| 2026-04-25 05:06 | 36.66607 | 71.33789 | 37342 ft | 495 kts | 135° |
| 2026-04-25 05:07 | 36.62099 | 71.40214 | 37350 ft | 498 kts | 135° |
| 2026-04-25 05:07 | 36.57725 | 71.46905 | 37370 ft | 498 kts | 135° |
| 2026-04-25 05:08 | 36.53273 | 71.53509 | 37352 ft | 498 kts | 135° |
| 2026-04-25 05:08 | 36.48844 | 71.60141 | 37319 ft | 500 kts | 130° |
| 2026-04-25 05:09 | 36.45657 | 71.67871 | 37348 ft | 509 kts | 111° |
| 2026-04-25 05:09 | 36.43952 | 71.76420 | 37333 ft | 510 kts | 104° |
| 2026-04-25 05:10 | 36.42406 | 71.85013 | 37306 ft | 511 kts | 105° |
| 2026-04-25 05:10 | 36.40821 | 71.93564 | 37343 ft | 507 kts | 104° |
| 2026-04-25 05:11 | 36.39185 | 72.02076 | 37344 ft | 507 kts | 104° |
| 2026-04-25 05:11 | 36.37532 | 72.10591 | 37303 ft | 508 kts | 106° |
| 2026-04-25 05:12 | 36.35048 | 72.23346 | 37280 ft | 506 kts | 106° |
| 2026-04-25 05:12 | 36.33392 | 72.31820 | 37289 ft | 506 kts | 105° |
| 2026-04-25 05:13 | 36.31727 | 72.40305 | 37295 ft | 507 kts | 105° |
| 2026-04-25 05:13 | 36.30050 | 72.48815 | 37286 ft | 509 kts | 105° |
| 2026-04-25 05:14 | 36.28369 | 72.57298 | 37302 ft | 505 kts | 106° |
| 2026-04-25 05:15 | 36.25867 | 72.69921 | 37236 ft | 504 kts | 106° |
| 2026-04-25 05:15 | 36.24120 | 72.78424 | 37331 ft | 511 kts | 106° |
| 2026-04-25 05:16 | 36.22434 | 72.86943 | 37278 ft | 513 kts | 106° |
| 2026-04-25 05:16 | 36.20718 | 72.95566 | 37213 ft | 515 kts | 105° |
| 2026-04-25 05:16 | 36.19857 | 72.99854 | 37321 ft | 511 kts | 106° |
| 2026-04-25 05:17 | 36.18998 | 73.04105 | 37283 ft | 508 kts | 106° |
| 2026-04-25 05:17 | 36.17237 | 73.12548 | 37285 ft | 506 kts | 107° |
| 2026-04-25 05:18 | 36.15525 | 73.20982 | 37279 ft | 504 kts | 107° |
| 2026-04-25 05:18 | 36.13840 | 73.29348 | 37262 ft | 500 kts | 106° |
| 2026-04-25 05:19 | 36.12118 | 73.37776 | 37308 ft | 512 kts | 106° |
| 2026-04-25 05:19 | 36.10356 | 73.46288 | 37276 ft | 508 kts | 106° |
| 2026-04-25 05:20 | 36.08623 | 73.54693 | 37294 ft | 505 kts | 106° |
| 2026-04-25 05:20 | 36.06879 | 73.63116 | 37322 ft | 507 kts | 107° |
| 2026-04-25 05:21 | 36.05114 | 73.71570 | 37312 ft | 508 kts | 107° |
| 2026-04-25 05:21 | 36.03341 | 73.80044 | 37306 ft | 510 kts | 106° |
| 2026-04-25 05:22 | 36.01561 | 73.88504 | 37286 ft | 509 kts | 107° |
| 2026-04-25 05:22 | 35.99778 | 73.96981 | 37269 ft | 511 kts | 107° |
| 2026-04-25 05:23 | 35.97979 | 74.05466 | 37295 ft | 511 kts | 107° |
| 2026-04-25 05:23 | 35.96171 | 74.13964 | 37282 ft | 514 kts | 106° |
| 2026-04-25 05:24 | 35.94347 | 74.22520 | 37276 ft | 512 kts | 107° |
| 2026-04-25 05:24 | 35.92521 | 74.30907 | 37280 ft | 503 kts | 111° |
| 2026-04-25 05:25 | 35.89483 | 74.38569 | 37301 ft | 495 kts | 128° |
| 2026-04-25 05:25 | 35.85647 | 74.45610 | 37308 ft | 495 kts | 129° |
| 2026-04-25 05:26 | 35.81777 | 74.52680 | 37314 ft | 499 kts | 128° |
| 2026-04-25 05:26 | 35.77925 | 74.59813 | 37306 ft | 501 kts | 128° |
| 2026-04-25 05:27 | 35.74107 | 74.66923 | 37335 ft | 499 kts | 128° |
| 2026-04-25 05:27 | 35.70287 | 74.74080 | 37184 ft | 497 kts | 127° |
| 2026-04-25 05:27 | 35.68405 | 74.77596 | 37368 ft | 492 kts | 128° |
| 2026-04-25 05:28 | 35.66491 | 74.81122 | 37348 ft | 499 kts | 128° |
| 2026-04-25 05:28 | 35.62614 | 74.88273 | 37325 ft | 505 kts | 129° |
| 2026-04-25 05:29 | 35.58712 | 74.95472 | 37313 ft | 506 kts | 128° |
| 2026-04-25 05:29 | 35.55539 | 75.01384 | 37387 ft | 494 kts | 128° |
| 2026-04-25 05:29 | 35.53635 | 75.04892 | 37253 ft | 492 kts | 128° |
| 2026-04-25 05:30 | 35.51744 | 75.08385 | 37346 ft | 494 kts | 128° |
| 2026-04-25 05:30 | 35.47883 | 75.15430 | 37399 ft | 503 kts | 129° |
| 2026-04-25 05:31 | 35.43955 | 75.22588 | 37360 ft | 505 kts | 129° |
| 2026-04-25 05:31 | 35.40053 | 75.29745 | 37364 ft | 504 kts | 129° |
| 2026-04-25 05:32 | 35.36185 | 75.36844 | 37371 ft | 496 kts | 129° |
| 2026-04-25 05:32 | 35.34291 | 75.40375 | 37242 ft | 494 kts | 128° |
| 2026-04-25 05:32 | 35.32396 | 75.43863 | 37346 ft | 492 kts | 128° |
| 2026-04-25 05:33 | 35.28561 | 75.50886 | 37307 ft | 502 kts | 129° |
| 2026-04-25 05:33 | 35.24603 | 75.57966 | 37359 ft | 504 kts | 129° |
| 2026-04-25 05:34 | 35.20661 | 75.65046 | 37390 ft | 498 kts | 129° |
| 2026-04-25 05:34 | 35.16733 | 75.72116 | 37349 ft | 506 kts | 129° |
| 2026-04-25 05:35 | 35.12768 | 75.79267 | 37157 ft | 512 kts | 129° |
| 2026-04-25 05:35 | 35.10761 | 75.82884 | 36625 ft | 514 kts | 129° |
| 2026-04-25 05:35 | 35.08760 | 75.86493 | 36053 ft | 512 kts | 129° |
| 2026-04-25 05:35 | 35.06757 | 75.90096 | 35421 ft | 514 kts | 129° |
| 2026-04-25 05:36 | 35.04737 | 75.93714 | 34683 ft | 518 kts | 129° |
| 2026-04-25 05:36 | 35.02711 | 75.97354 | 33977 ft | 520 kts | 129° |
| 2026-04-25 05:36 | 35.00674 | 76.01009 | 33194 ft | 521 kts | 128° |
| 2026-04-25 05:36 | 34.98652 | 76.04633 | 32748 ft | 514 kts | 128° |
| 2026-04-25 05:37 | 34.96649 | 76.08220 | 32208 ft | 509 kts | 128° |
| 2026-04-25 05:37 | 34.94667 | 76.11765 | 31725 ft | 503 kts | 128° |
| 2026-04-25 05:37 | 34.92724 | 76.15234 | 31255 ft | 498 kts | 128° |
| 2026-04-25 05:37 | 34.90752 | 76.18745 | 30739 ft | 494 kts | 127° |
| 2026-04-25 05:38 | 34.88810 | 76.22164 | 30229 ft | 488 kts | 128° |
| 2026-04-25 05:38 | 34.86918 | 76.25505 | 29680 ft | 483 kts | 127° |
| 2026-04-25 05:38 | 34.85045 | 76.28861 | 29168 ft | 476 kts | 127° |
| 2026-04-25 05:38 | 34.83195 | 76.32172 | 28666 ft | 469 kts | 127° |
| 2026-04-25 05:39 | 34.81366 | 76.35433 | 28156 ft | 464 kts | 127° |
| 2026-04-25 05:39 | 34.79554 | 76.38656 | 27670 ft | 459 kts | 127° |
| 2026-04-25 05:39 | 34.77762 | 76.41836 | 27177 ft | 454 kts | 127° |
| 2026-04-25 05:39 | 34.75983 | 76.44987 | 26699 ft | 450 kts | 127° |
| 2026-04-25 05:40 | 34.74217 | 76.48110 | 26200 ft | 446 kts | 127° |
| 2026-04-25 05:40 | 34.72467 | 76.51203 | 25756 ft | 442 kts | 127° |
| 2026-04-25 05:40 | 34.70730 | 76.54265 | 25284 ft | 438 kts | 127° |
| 2026-04-25 05:40 | 34.69011 | 76.57295 | 24800 ft | 435 kts | 127° |
| 2026-04-25 05:41 | 34.67296 | 76.60312 | 24323 ft | 432 kts | 127° |
| 2026-04-25 05:41 | 34.65597 | 76.63303 | 23809 ft | 428 kts | 127° |
| 2026-04-25 05:41 | 34.63914 | 76.66266 | 23196 ft | 427 kts | 127° |
| 2026-04-25 05:41 | 34.62249 | 76.69196 | 23034 ft | 414 kts | 127° |
| 2026-04-25 05:42 | 34.60636 | 76.72035 | 22830 ft | 403 kts | 127° |
| 2026-04-25 05:42 | 34.59053 | 76.74814 | 22379 ft | 400 kts | 127° |
| 2026-04-25 05:42 | 34.57475 | 76.77578 | 21942 ft | 396 kts | 127° |
| 2026-04-25 05:42 | 34.55918 | 76.80311 | 21613 ft | 392 kts | 127° |
| 2026-04-25 05:43 | 34.54370 | 76.83015 | 21203 ft | 388 kts | 127° |
| 2026-04-25 05:43 | 34.52834 | 76.85699 | 20790 ft | 385 kts | 127° |
| 2026-04-25 05:43 | 34.51321 | 76.88348 | 20351 ft | 380 kts | 127° |
| 2026-04-25 05:43 | 34.49829 | 76.90970 | 20096 ft | 373 kts | 127° |
| 2026-04-25 05:44 | 34.48373 | 76.93510 | 19948 ft | 361 kts | 127° |
| 2026-04-25 05:44 | 34.46967 | 76.95968 | 19905 ft | 347 kts | 127° |
| 2026-04-25 05:44 | 34.45615 | 76.98315 | 19863 ft | 333 kts | 127° |
| 2026-04-25 05:44 | 34.44324 | 77.00558 | 19899 ft | 315 kts | 127° |
| 2026-04-25 05:45 | 34.43087 | 77.02675 | 19902 ft | 301 kts | 128° |
| 2026-04-25 05:45 | 34.41923 | 77.04698 | 19904 ft | 293 kts | 127° |
| 2026-04-25 05:45 | 34.40785 | 77.06687 | 19882 ft | 281 kts | 128° |
| 2026-04-25 05:45 | 34.39677 | 77.08581 | 19910 ft | 273 kts | 128° |
| 2026-04-25 05:46 | 34.38591 | 77.10475 | 19881 ft | 268 kts | 128° |
| 2026-04-25 05:46 | 34.37532 | 77.12329 | 19925 ft | 278 kts | 127° |
| 2026-04-25 05:46 | 34.36419 | 77.14270 | 19934 ft | 283 kts | 128° |
| 2026-04-25 05:46 | 34.35278 | 77.16256 | 19917 ft | 283 kts | 128° |
| 2026-04-25 05:47 | 34.34169 | 77.18183 | 19885 ft | 283 kts | 128° |
| 2026-04-25 05:47 | 34.33049 | 77.20123 | 19921 ft | 280 kts | 128° |
| 2026-04-25 05:47 | 34.31936 | 77.22056 | 19899 ft | 279 kts | 128° |
| 2026-04-25 05:47 | 34.30831 | 77.23974 | 19911 ft | 278 kts | 128° |
| 2026-04-25 05:48 | 34.29726 | 77.25889 | 19934 ft | 277 kts | 128° |
| 2026-04-25 05:48 | 34.28622 | 77.27800 | 19924 ft | 276 kts | 128° |
| 2026-04-25 05:48 | 34.27510 | 77.29721 | 19674 ft | 280 kts | 128° |
| 2026-04-25 05:48 | 34.26390 | 77.31656 | 19461 ft | 281 kts | 128° |
| 2026-04-25 05:49 | 34.25278 | 77.33580 | 19309 ft | 277 kts | 128° |
| 2026-04-25 05:49 | 34.24180 | 77.35467 | 19123 ft | 274 kts | 128° |
| 2026-04-25 05:49 | 34.23083 | 77.37360 | 18888 ft | 274 kts | 128° |
| 2026-04-25 05:49 | 34.21990 | 77.39246 | 18660 ft | 273 kts | 128° |
| 2026-04-25 05:50 | 34.20903 | 77.41121 | 18454 ft | 271 kts | 127° |
| 2026-04-25 05:50 | 34.19822 | 77.42985 | 18193 ft | 271 kts | 127° |
| 2026-04-25 05:50 | 34.18743 | 77.44842 | 17986 ft | 269 kts | 127° |
| 2026-04-25 05:50 | 34.17671 | 77.46685 | 17740 ft | 268 kts | 127° |
| 2026-04-25 05:51 | 34.16602 | 77.48524 | 17475 ft | 268 kts | 127° |
| 2026-04-25 05:51 | 34.15536 | 77.50357 | 17260 ft | 265 kts | 127° |
| 2026-04-25 05:51 | 34.14477 | 77.52175 | 17019 ft | 265 kts | 127° |
| 2026-04-25 05:51 | 34.13421 | 77.53988 | 16785 ft | 263 kts | 127° |
| 2026-04-25 05:52 | 34.12369 | 77.55791 | 16554 ft | 262 kts | 127° |
| 2026-04-25 05:52 | 34.11305 | 77.57606 | 16165 ft | 267 kts | 127° |
| 2026-04-25 05:52 | 34.10229 | 77.59431 | 15854 ft | 267 kts | 126° |
| 2026-04-25 05:52 | 34.09151 | 77.61261 | 15444 ft | 267 kts | 119° |
| 2026-04-25 05:53 | 34.08642 | 77.63388 | 15078 ft | 264 kts | 89° |
| 2026-04-25 05:53 | 34.08980 | 77.65490 | 15021 ft | 247 kts | 76° |
| 2026-04-25 05:53 | 34.09008 | 77.67480 | 14912 ft | 234 kts | 110° |
| 2026-04-25 05:53 | 34.08169 | 77.69082 | 14641 ft | 228 kts | 145° |
| 2026-04-25 05:54 | 34.06738 | 77.69710 | 14351 ft | 218 kts | 186° |
| 2026-04-25 05:54 | 34.05380 | 77.69100 | 13993 ft | 207 kts | 219° |
| 2026-04-25 05:54 | 34.03119 | 77.67046 | 13479 ft | 196 kts | 219° |
| 2026-04-25 05:55 | 34.02084 | 77.66079 | 13403 ft | 183 kts | 220° |
| 2026-04-25 05:55 | 34.01218 | 77.64968 | 13372 ft | 179 kts | 229° |
| 2026-04-25 05:55 | 34.00118 | 77.64310 | 13182 ft | 191 kts | 185° |
| 2026-04-25 05:55 | 33.98814 | 77.64702 | 13267 ft | 200 kts | 151° |
| 2026-04-25 05:56 | 33.97997 | 77.66100 | 12950 ft | 214 kts | 103° |
| 2026-04-25 05:56 | 33.98182 | 77.67805 | 12940 ft | 210 kts | 62° |
| 2026-04-25 05:56 | 33.99197 | 77.68948 | 12828 ft | 199 kts | 15° |
| 2026-04-25 05:56 | 34.00539 | 77.68986 | 12974 ft | 195 kts | 343° |
| 2026-04-25 05:57 | 34.01809 | 77.68450 | 13240 ft | 194 kts | 334° |
| 2026-04-25 05:57 | 34.03037 | 77.67781 | 13389 ft | 193 kts | 328° |
| 2026-04-25 05:57 | 34.04201 | 77.67072 | 13384 ft | 180 kts | 324° |
| 2026-04-25 05:57 | 34.05258 | 77.66312 | 13379 ft | 176 kts | 320° |
| 2026-04-25 05:58 | 34.06276 | 77.65490 | 13026 ft | 176 kts | 320° |
| 2026-04-25 05:58 | 34.07250 | 77.64627 | 12738 ft | 171 kts | 318° |
| 2026-04-25 05:58 | 34.08161 | 77.63711 | 12334 ft | 169 kts | 311° |
| 2026-04-25 05:58 | 34.08959 | 77.62732 | 12131 ft | 158 kts | 306° |
| 2026-04-25 05:59 | 34.09682 | 77.61688 | 11803 ft | 173 kts | 307° |
| 2026-04-25 05:59 | 34.10530 | 77.60637 | 11377 ft | 163 kts | 316° |
| 2026-04-25 05:59 | 34.11387 | 77.59777 | 11253 ft | 165 kts | 320° |
| 2026-04-25 05:59 | 34.12316 | 77.58937 | 11177 ft | 166 kts | 315° |
| 2026-04-25 06:00 | 34.13185 | 77.58106 | 11744 ft | 161 kts | 325° |
| 2026-04-25 06:00 | 34.14239 | 77.57228 | 11624 ft | 197 kts | 322° |
| 2026-04-25 06:00 | 34.15349 | 77.56602 | 11742 ft | 166 kts | 352° |
| 2026-04-25 06:00 | 34.16502 | 77.56851 | 12105 ft | 173 kts | 20° |
| 2026-04-25 06:01 | 34.17614 | 77.57369 | 12497 ft | 175 kts | 19° |
| 2026-04-25 06:01 | 34.18745 | 77.57952 | 12904 ft | 175 kts | 18° |
| 2026-04-25 06:01 | 34.19664 | 77.58852 | 13175 ft | 183 kts | 66° |
| 2026-04-25 06:01 | 34.19588 | 77.60342 | 13414 ft | 186 kts | 126° |
| 2026-04-25 06:02 | 34.18543 | 77.61010 | 13297 ft | 173 kts | 199° |
| 2026-04-25 06:02 | 34.17500 | 77.60288 | 13214 ft | 181 kts | 211° |
| 2026-04-25 06:02 | 34.16313 | 77.59571 | 12380 ft | 193 kts | 224° |
| 2026-04-25 06:02 | 34.15514 | 77.58396 | 11836 ft | 180 kts | 233° |
| 2026-04-25 06:03 | 34.14662 | 77.57380 | 11405 ft | 169 kts | 222° |
| 2026-04-25 06:03 | 34.14059 | 77.56215 | 10987 ft | 163 kts | 255° |
| 2026-04-25 06:03 | 34.13701 | 77.54961 | 10762 ft | 142 kts | 252° |
| 2026-04-25 06:03 | 34.13357 | 77.53750 | 10672 ft | 179 kts | 250° |
| 2026-04-25 06:04 | 34.12817 | 77.52252 | 10984 ft | 201 kts | 240° |
| 2026-04-25 06:04 | 34.11787 | 77.51374 | 11656 ft | 183 kts | 186° |
| 2026-04-25 06:04 | 34.10601 | 77.51819 | 11912 ft | 175 kts | 144° |
| 2026-04-25 06:04 | 34.09749 | 77.52855 | 11720 ft | 180 kts | 125° |
| 2026-04-25 06:05 | 34.09111 | 77.54236 | 11923 ft | 188 kts | 116° |
| 2026-04-25 06:05 | 34.08680 | 77.55713 | 11863 ft | 190 kts | 107° |
| 2026-04-25 06:05 | 34.08385 | 77.57289 | 11603 ft | 195 kts | 101° |
| 2026-04-25 06:05 | 34.08211 | 77.58937 | 11359 ft | 194 kts | 90° |
| 2026-04-25 06:06 | 34.08659 | 77.60360 | 11209 ft | 181 kts | 39° |
| 2026-04-25 06:06 | 34.09736 | 77.60985 | 11424 ft | 175 kts | 5° |
| 2026-04-25 06:06 | 34.10888 | 77.61110 | 11543 ft | 167 kts | 355° |
| 2026-04-25 06:06 | 34.12035 | 77.61000 | 11604 ft | 164 kts | 347° |
| 2026-04-25 06:07 | 34.13018 | 77.60385 | 11542 ft | 165 kts | 310° |
| 2026-04-25 06:07 | 34.13873 | 77.59567 | 11708 ft | 161 kts | 335° |
| 2026-04-25 06:07 | 34.14461 | 77.58581 | 11561 ft | 172 kts | 265° |
| 2026-04-25 06:07 | 34.14319 | 77.57153 | 11258 ft | 171 kts | 255° |
| 2026-04-25 06:08 | 34.13944 | 77.55814 | 10881 ft | 165 kts | 252° |
| 2026-04-25 06:08 | 34.13579 | 77.54572 | 10716 ft | 146 kts | 258° |
| 2026-04-25 06:08 | 34.13320 | 77.53648 | 10640 ft | 93 kts | 250° |
| 2026-04-25 06:08 | 34.13164 | 77.53107 | 10592 ft | 14 kts | 251° |
| 2026-04-25 06:09 | 34.13168 | 77.53124 | 10593 ft | 7 kts | 251° |
| 2026-04-25 06:09 | 34.13194 | 77.53213 | 10601 ft | 15 kts | 251° |
| 2026-04-25 06:09 | 34.13216 | 77.53288 | 10605 ft | 20 kts | 251° |